Darstellungsparameter: Aktuell verwendete Einstellungen:
Skalierung der Graphiken ... ?
xyx+y,   Skalierungsfaktor:      Skalierung: Modus: x, Faktor: 1
Darstellungszeitraum ... ?
Vom - - bis: - -   Zeitraum: 01.05.2020 - 01.05.2020
Min/Max/Avg-Anzeige ... ?
Zeige MMA aktuell
Zeige MMA Monat
Zeige MMA alles
Zeige --A aktuell
Zeige --A Monat
Zeige --A alles
Keine MMA-Anzeige
MMA:
Keine MMA-Graphiken
MMA-Basis: 01.05.2020 - 01.05.2020
Quicknavigation für Darstellung... ?
Tage:      1T, 2T, 3T, 5T -1T -2T -3T -5T +1T +2T +3T +5T
Wochen: 1W, 2W, 3W -1W -2W -3W +1W +2W +3W
Monate: 1M, 3M, 6M -1M -3M -6M +1M +3M +6M
Jahre:    1J, 3J, 5J, 10J -1J -3J -5J -10J +1J +3J +5J +10J
Nutze für die Darstellung ... ?
Originaldaten oder Mittelwerte auf ...
Stundenbasis Tagesbasis Wochenbasis
Monatsbasis Jahresbasis      Datenbasis: Original-Daten
Darstellen als:
Statistik (Auto) Statistik J:M      Darstellung:
Zur Graphik,    zurück zur Übersicht aller Sensoren.
 
Tabellarische Datenbersicht: ?
 
Sensor: Nr:Datum:Temp:Feuchte:
Aussen-T/F 1 01-05-2020 00:03:17 8.9 C 43 %
2 01-05-2020 00:13:17 8.6 C 44 %
3 01-05-2020 00:23:17 8.2 C 44 %
4 01-05-2020 00:33:18 8.4 C 44 %
5 01-05-2020 00:43:18 8.2 C 44 %
6 01-05-2020 00:53:17 7.8 C 45 %
7 01-05-2020 01:03:17 8.1 C 45 %
8 01-05-2020 01:13:18 8.2 C 44 %
9 01-05-2020 01:23:18 8.1 C 43 %
10 01-05-2020 01:33:18 8.1 C 43 %
11 01-05-2020 01:43:18 8.5 C 42 %
12 01-05-2020 01:53:17 8.5 C 41 %
13 01-05-2020 02:03:17 8.1 C 42 %
14 01-05-2020 02:13:18 8 C 42 %
15 01-05-2020 02:23:17 7.7 C 43 %
16 01-05-2020 02:33:17 7.6 C 43 %
17 01-05-2020 02:43:17 7.8 C 43 %
18 01-05-2020 02:53:17 7.7 C 44 %
19 01-05-2020 03:03:17 7.4 C 44 %
20 01-05-2020 03:13:18 7.4 C 46 %
21 01-05-2020 03:23:17 7.9 C 44 %
22 01-05-2020 03:33:17 8.2 C 41 %
23 01-05-2020 03:43:17 8 C 42 %
24 01-05-2020 03:53:18 7.4 C 44 %
25 01-05-2020 04:03:17 7.3 C 45 %
Sensor: Nr:Datum:Temp:Feuchte:
Aussen-T/F 26 01-05-2020 04:13:17 7 C 45 %
27 01-05-2020 04:23:17 7.1 C 46 %
28 01-05-2020 04:33:17 7.3 C 46 %
29 01-05-2020 04:43:17 7.4 C 46 %
30 01-05-2020 04:53:17 7.6 C 46 %
31 01-05-2020 05:03:18 7.8 C 46 %
32 01-05-2020 05:13:18 7.9 C 46 %
33 01-05-2020 05:23:17 8 C 45 %
34 01-05-2020 05:33:18 8 C 45 %
35 01-05-2020 05:43:18 8.6 C 41 %
36 01-05-2020 05:53:17 8.4 C 40 %
37 01-05-2020 06:03:17 8.1 C 41 %
38 01-05-2020 06:13:17 7.8 C 43 %
39 01-05-2020 06:23:17 7.6 C 44 %
40 01-05-2020 06:33:17 7.6 C 45 %
41 01-05-2020 06:43:17 7.4 C 45 %
42 01-05-2020 06:53:17 7 C 45 %
43 01-05-2020 07:03:17 6.8 C 46 %
44 01-05-2020 07:13:17 6.9 C 46 %
45 01-05-2020 07:23:17 7.8 C 46 %
46 01-05-2020 07:33:18 7.9 C 46 %
47 01-05-2020 07:43:18 8.3 C 45 %
48 01-05-2020 07:53:17 8.1 C 41 %
49 01-05-2020 08:03:18 8.1 C 41 %
50 01-05-2020 08:13:18 8.4 C 41 %
Sensor: Nr:Datum:Temp:Feuchte:
Aussen-T/F 51 01-05-2020 08:23:18 8.3 C 42 %
52 01-05-2020 08:33:18 8.3 C 44 %
53 01-05-2020 08:43:18 9 C 44 %
54 01-05-2020 08:53:17 9.2 C 42 %
55 01-05-2020 09:03:17 9.6 C 42 %
56 01-05-2020 09:13:17 9.7 C 42 %
57 01-05-2020 09:23:17 10.1 C 40 %
58 01-05-2020 09:33:17 10.4 C 38 %
59 01-05-2020 09:43:18 10.6 C 39 %
60 01-05-2020 09:53:18 10.5 C 38 %
61 01-05-2020 10:03:18 10.5 C 38 %
62 01-05-2020 10:13:18 10.6 C 37 %
63 01-05-2020 10:23:17 10.5 C 37 %
64 01-05-2020 10:33:17 11 C 37 %
65 01-05-2020 10:43:17 11.5 C 36 %
66 01-05-2020 10:53:17 12.6 C 34 %
67 01-05-2020 11:03:17 12.5 C 33 %
68 01-05-2020 11:13:18 12.8 C 33 %
69 01-05-2020 11:23:17 12.7 C 32 %
70 01-05-2020 11:33:18 13.1 C 31 %
71 01-05-2020 11:43:18 13.1 C 31 %
72 01-05-2020 11:53:17 12.8 C 32 %
73 01-05-2020 12:03:17 12.1 C 32 %
74 01-05-2020 12:13:17 11.9 C 34 %
75 01-05-2020 12:23:17 12.1 C 33 %
Sensor: Nr:Datum:Temp:Feuchte:
Aussen-T/F 76 01-05-2020 12:33:17 11.1 C 36 %
77 01-05-2020 12:43:17 10.7 C 38 %
78 01-05-2020 12:53:17 10.4 C 39 %
79 01-05-2020 13:03:18 10.3 C 38 %
80 01-05-2020 13:13:18 9.7 C 38 %
81 01-05-2020 13:23:17 10.5 C 38 %
82 01-05-2020 13:33:17 11.3 C 36 %
83 01-05-2020 13:43:17 12.4 C 34 %
84 01-05-2020 13:53:17 12.8 C 34 %
85 01-05-2020 14:03:17 12.3 C 33 %
86 01-05-2020 14:13:17 13.5 C 31 %
87 01-05-2020 14:23:18 14.7 C 28 %
88 01-05-2020 14:33:18 14.2 C 27 %
89 01-05-2020 14:43:18 16.8 C 22 %
90 01-05-2020 14:53:17 19.6 C 20 %
91 01-05-2020 15:03:17 19.2 C 20 %
92 01-05-2020 15:13:17 20 C 20 %
93 01-05-2020 15:23:17 16.6 C 20 %
94 01-05-2020 15:33:17 14.9 C 25 %
95 01-05-2020 15:43:17 13.5 C 27 %
96 01-05-2020 15:53:17 11.7 C 34 %
97 01-05-2020 16:03:18 13.5 C 30 %
98 01-05-2020 16:13:18 18.5 C 24 %
99 01-05-2020 16:23:17 19 C 20 %
100 01-05-2020 16:33:18 18 C 20 %
Sensor: Nr:Datum:Temp:Feuchte:
Aussen-T/F 101 01-05-2020 16:43:18 18.4 C 20 %
102 01-05-2020 16:53:17 17.1 C 22 %
103 01-05-2020 17:03:18 19.1 C 20 %
104 01-05-2020 17:13:18 18.3 C 20 %
105 01-05-2020 17:23:17 15.5 C 25 %
106 01-05-2020 17:33:17 14 C 28 %
107 01-05-2020 17:43:17 12.2 C 34 %
108 01-05-2020 17:53:17 12.3 C 35 %
109 01-05-2020 18:03:18 12.5 C 35 %
110 01-05-2020 18:13:18 12.1 C 35 %
111 01-05-2020 18:23:17 12.2 C 35 %
112 01-05-2020 18:33:18 12.8 C 35 %
113 01-05-2020 18:43:18 13.8 C 34 %
114 01-05-2020 18:53:17 13.2 C 31 %
115 01-05-2020 19:03:18 12.7 C 34 %
116 01-05-2020 19:13:18 12.1 C 35 %
117 01-05-2020 19:23:18 11.7 C 36 %
118 01-05-2020 19:33:17 11.8 C 35 %
119 01-05-2020 19:43:17 11.8 C 35 %
120 01-05-2020 19:53:17 11.4 C 35 %
121 01-05-2020 20:03:17 11.3 C 35 %
122 01-05-2020 20:13:17 11.3 C 35 %
123 01-05-2020 20:23:17 11.5 C 34 %
124 01-05-2020 20:33:17 11.1 C 34 %
125 01-05-2020 20:43:17 10.5 C 36 %
Sensor: Nr:Datum:Temp:Feuchte:
Aussen-T/F 126 01-05-2020 20:53:17 10.3 C 37 %
127 01-05-2020 21:03:18 10.3 C 37 %
128 01-05-2020 21:13:18 10.4 C 37 %
129 01-05-2020 21:23:17 10.2 C 37 %
130 01-05-2020 21:33:17 9.8 C 38 %
131 01-05-2020 21:43:17 9.3 C 39 %
132 01-05-2020 21:53:17 8.8 C 40 %
133 01-05-2020 22:03:18 9 C 40 %
134 01-05-2020 22:13:18 9 C 40 %
135 01-05-2020 22:23:17 9.2 C 39 %
136 01-05-2020 22:33:17 9.3 C 39 %
137 01-05-2020 22:43:17 9.3 C 40 %
138 01-05-2020 22:53:18 9.5 C 39 %
139 01-05-2020 23:03:17 9.4 C 40 %
140 01-05-2020 23:13:17 9.3 C 40 %
141 01-05-2020 23:23:17 9.3 C 40 %
142 01-05-2020 23:33:17 9.4 C 40 %
143 01-05-2020 23:43:17 9.5 C 39 %
144 01-05-2020 23:53:17 9.4 C 40 %
Sensor: Nr:Datum:Temp:Feuchte:
G-T/H 1 01-05-2020 00:03:17 14 C 65 %
2 01-05-2020 00:13:17 14 C 65 %
3 01-05-2020 00:23:17 14 C 65 %
4 01-05-2020 00:33:18 14 C 65 %
5 01-05-2020 00:43:18 14 C 65 %
6 01-05-2020 00:53:17 14 C 65 %
7 01-05-2020 01:03:17 14 C 65 %
8 01-05-2020 01:13:18 13.9 C 65 %
9 01-05-2020 01:23:18 13.9 C 65 %
10 01-05-2020 01:33:18 13.9 C 65 %
11 01-05-2020 01:43:18 13.9 C 65 %
12 01-05-2020 01:53:17 13.9 C 65 %
13 01-05-2020 02:03:17 13.9 C 65 %
14 01-05-2020 02:13:18 13.8 C 65 %
15 01-05-2020 02:23:17 13.8 C 65 %
16 01-05-2020 02:33:17 13.8 C 65 %
17 01-05-2020 02:43:17 13.8 C 65 %
18 01-05-2020 02:53:17 13.8 C 65 %
19 01-05-2020 03:03:17 13.8 C 65 %
20 01-05-2020 03:13:18 13.7 C 65 %
21 01-05-2020 03:23:17 13.8 C 65 %
22 01-05-2020 03:33:17 13.7 C 65 %
23 01-05-2020 03:43:17 13.7 C 65 %
24 01-05-2020 03:53:18 13.7 C 64 %
25 01-05-2020 04:03:17 13.7 C 64 %
Sensor: Nr:Datum:Temp:Feuchte:
G-T/H 26 01-05-2020 04:13:17 13.7 C 64 %
27 01-05-2020 04:23:17 13.6 C 64 %
28 01-05-2020 04:33:17 13.7 C 64 %
29 01-05-2020 04:43:17 13.7 C 64 %
30 01-05-2020 04:53:17 13.6 C 64 %
31 01-05-2020 05:03:18 13.6 C 64 %
32 01-05-2020 05:13:18 13.6 C 64 %
33 01-05-2020 05:23:17 13.5 C 64 %
34 01-05-2020 05:33:18 13.5 C 64 %
35 01-05-2020 05:43:18 13.5 C 64 %
36 01-05-2020 05:53:17 13.5 C 64 %
37 01-05-2020 06:03:17 13.5 C 64 %
38 01-05-2020 06:13:17 13.5 C 64 %
39 01-05-2020 06:23:17 13.5 C 64 %
40 01-05-2020 06:33:17 13.5 C 64 %
41 01-05-2020 06:43:17 13.4 C 64 %
42 01-05-2020 06:53:17 13.4 C 64 %
43 01-05-2020 07:03:17 13.4 C 64 %
44 01-05-2020 07:13:17 13.4 C 64 %
45 01-05-2020 07:23:17 13.4 C 64 %
46 01-05-2020 07:33:18 13.4 C 64 %
47 01-05-2020 07:43:18 13.3 C 64 %
48 01-05-2020 07:53:17 13.3 C 64 %
49 01-05-2020 08:03:18 13.3 C 64 %
50 01-05-2020 08:13:18 13.3 C 64 %
Sensor: Nr:Datum:Temp:Feuchte:
G-T/H 51 01-05-2020 08:23:18 13.3 C 64 %
52 01-05-2020 08:33:18 13.3 C 64 %
53 01-05-2020 08:43:18 13.2 C 64 %
54 01-05-2020 08:53:17 13.2 C 64 %
55 01-05-2020 09:03:17 13.2 C 64 %
56 01-05-2020 09:13:17 13.2 C 64 %
57 01-05-2020 09:23:17 13.2 C 64 %
58 01-05-2020 09:33:17 13.2 C 65 %
59 01-05-2020 09:43:18 13.2 C 65 %
60 01-05-2020 09:53:18 13.2 C 65 %
61 01-05-2020 10:03:18 13.2 C 65 %
62 01-05-2020 10:13:18 13.1 C 65 %
63 01-05-2020 10:23:17 13.2 C 65 %
64 01-05-2020 10:33:17 13.2 C 65 %
65 01-05-2020 10:43:17 13.2 C 65 %
66 01-05-2020 10:53:17 13.2 C 65 %
67 01-05-2020 11:03:17 13.2 C 65 %
68 01-05-2020 11:13:18 13.1 C 65 %
69 01-05-2020 11:23:17 13.2 C 65 %
70 01-05-2020 11:33:18 13.1 C 65 %
71 01-05-2020 11:43:18 13.2 C 65 %
72 01-05-2020 11:53:17 13.2 C 65 %
73 01-05-2020 12:03:17 13.2 C 65 %
74 01-05-2020 12:13:17 13.2 C 65 %
75 01-05-2020 12:23:17 13.1 C 65 %
Sensor: Nr:Datum:Temp:Feuchte:
G-T/H 76 01-05-2020 12:33:17 13.2 C 65 %
77 01-05-2020 12:43:17 13.2 C 65 %
78 01-05-2020 12:53:17 13.2 C 65 %
79 01-05-2020 13:03:18 13.1 C 65 %
80 01-05-2020 13:13:18 13.2 C 65 %
81 01-05-2020 13:23:17 13.2 C 65 %
82 01-05-2020 13:33:17 13.2 C 65 %
83 01-05-2020 13:43:17 13.2 C 65 %
84 01-05-2020 13:53:17 13.2 C 65 %
85 01-05-2020 14:03:17 13.2 C 65 %
86 01-05-2020 14:13:17 13.2 C 65 %
87 01-05-2020 14:23:18 13.2 C 65 %
88 01-05-2020 14:33:18 13.3 C 65 %
89 01-05-2020 14:43:18 13.2 C 66 %
90 01-05-2020 14:53:17 13.3 C 66 %
91 01-05-2020 15:03:17 13.2 C 66 %
92 01-05-2020 15:13:17 13.2 C 66 %
93 01-05-2020 15:23:17 13.3 C 66 %
94 01-05-2020 15:33:17 13.3 C 66 %
95 01-05-2020 15:43:17 13.3 C 66 %
96 01-05-2020 15:53:17 13.3 C 66 %
97 01-05-2020 16:03:18 13.3 C 66 %
98 01-05-2020 16:13:18 13.3 C 66 %
99 01-05-2020 16:23:17 13.3 C 66 %
100 01-05-2020 16:33:18 13.3 C 66 %
Sensor: Nr:Datum:Temp:Feuchte:
G-T/H 101 01-05-2020 16:43:18 13.3 C 66 %
102 01-05-2020 16:53:17 13.4 C 66 %
103 01-05-2020 17:03:18 13.4 C 66 %
104 01-05-2020 17:13:18 13.4 C 66 %
105 01-05-2020 17:23:17 13.4 C 66 %
106 01-05-2020 17:33:17 13.4 C 66 %
107 01-05-2020 17:43:17 13.4 C 66 %
108 01-05-2020 17:53:17 13.4 C 66 %
109 01-05-2020 18:03:18 13.4 C 66 %
110 01-05-2020 18:13:18 13.4 C 66 %
111 01-05-2020 18:23:17 13.4 C 66 %
112 01-05-2020 18:33:18 13.4 C 66 %
113 01-05-2020 18:43:18 13.4 C 66 %
114 01-05-2020 18:53:17 13.4 C 67 %
115 01-05-2020 19:03:18 13.4 C 67 %
116 01-05-2020 19:13:18 13.4 C 67 %
117 01-05-2020 19:23:18 13.4 C 67 %
118 01-05-2020 19:33:17 13.4 C 66 %
119 01-05-2020 19:43:17 13.4 C 66 %
120 01-05-2020 19:53:17 13.4 C 66 %
121 01-05-2020 20:03:17 13.4 C 66 %
122 01-05-2020 20:13:17 13.4 C 66 %
123 01-05-2020 20:23:17 13.4 C 66 %
124 01-05-2020 20:33:17 13.4 C 66 %
125 01-05-2020 20:43:17 13.4 C 66 %
Sensor: Nr:Datum:Temp:Feuchte:
G-T/H 126 01-05-2020 20:53:17 13.4 C 66 %
127 01-05-2020 21:03:18 13.4 C 66 %
128 01-05-2020 21:13:18 13.4 C 66 %
129 01-05-2020 21:23:17 13.4 C 66 %
130 01-05-2020 21:33:17 13.4 C 66 %
131 01-05-2020 21:43:17 13.4 C 66 %
132 01-05-2020 21:53:17 13.4 C 66 %
133 01-05-2020 22:03:18 13.4 C 66 %
134 01-05-2020 22:13:18 13.4 C 66 %
135 01-05-2020 22:23:17 13.4 C 65 %
136 01-05-2020 22:33:17 13.4 C 65 %
137 01-05-2020 22:43:17 13.3 C 65 %
138 01-05-2020 22:53:18 13.3 C 65 %
139 01-05-2020 23:03:17 13.3 C 65 %
140 01-05-2020 23:13:17 13.3 C 65 %
141 01-05-2020 23:23:17 13.3 C 65 %
142 01-05-2020 23:33:17 13.3 C 65 %
143 01-05-2020 23:43:17 13.3 C 65 %
144 01-05-2020 23:53:17 13.3 C 65 %

Legende:
   Min
   Max


Maximal/Minimal-Werte vom 01.05.2020 - 01.05.2020

Sensor Min Max Avg
Temp
(Aussen-T/F)
6.8 °C
01-05-2020  07:03:17
20 °C
01-05-2020  15:13:17
10.66 °C
Feuchte
(Aussen-T/F)
20 %
01-05-2020  14:53:17
46 %
01-05-2020  03:13:18
37.35 %
Temp
(G-T/H)
13.1 °C
01-05-2020  10:13:18
14 °C
01-05-2020  00:03:17
13.42 °C
Feuchte
(G-T/H)
64 %
01-05-2020  03:53:18
67 %
01-05-2020  18:53:17
65.11 %

Die Daten stammen von einer Davis Vantage Pro 2 Wetter-Station und werden unter Linux mit der Software wview2wettercgi und aufbereitet. Alle Angaben erfolgen ohne Gewähr für ihre Vollständigkeit oder Richtigkeit.
Kontakt: Rainer Krienke krienke@uni-koblenz.de . Meine Webseiten an der Uni Koblenz oder privat.
Version: $Revision: 0.78 $